Time;durP1;ratioP1;P1;durP2;ratioP2;P2;SDS_P1;SDS_P2;PMS_P1;PMS_P2;Temp;Humidity;BMP_temperature;BMP_pressure;BME280_temperature;BME280_humidity;BME280_pressure;Samples;Min_cycle;Max_cycle;Signal;HPM_P1;HPM_P2
2023/08/10 00:01:48;;;;;;;2.80;1.95;;;;;;;;;;5838458;28;20231;-81
2023/08/10 00:04:40;;;;;;;1.73;1.10;;;;;;;;;;5832865;28;20049;-80
2023/08/10 00:07:33;;;;;;;1.75;1.55;;;;;;;;;;5841559;28;20041;-82
2023/08/10 00:10:23;;;;;;;2.90;1.48;;;;;;;;;;5841975;28;20053;-81
2023/08/10 00:13:15;;;;;;;1.63;1.27;;;;;;;;;;5841642;28;20052;-82
2023/08/10 00:16:06;;;;;;;2.33;1.65;;;;;;;;;;5841578;28;20050;-83
2023/08/10 00:18:56;;;;;;;2.42;1.77;;;;;;;;;;5841992;28;20401;-81
2023/08/10 00:21:47;;;;;;;2.85;1.52;;;;;;;;;;5841541;28;20057;-82
2023/08/10 00:24:38;;;;;;;2.70;1.58;;;;;;;;;;5841422;28;20050;-81
2023/08/10 00:27:29;;;;;;;3.22;2.40;;;;;;;;;;5841203;28;20054;-84
2023/08/10 00:30:20;;;;;;;1.80;1.70;;;;;;;;;;5841410;28;20072;-82
2023/08/10 00:33:11;;;;;;;1.75;1.65;;;;;;;;;;5841174;28;20056;-82
2023/08/10 00:36:17;;;;;;;4.32;2.75;;;;;;;;;;5841345;28;20054;-81
2023/08/10 00:39:08;;;;;;;1.63;1.52;;;;;;;;;;5841238;28;20513;-82
2023/08/10 00:41:59;;;;;;;4.45;2.00;;;;;;;;;;5841755;28;20042;-82
2023/08/10 00:44:50;;;;;;;4.80;1.83;;;;;;;;;;5841193;28;20046;-82
2023/08/10 00:47:41;;;;;;;1.92;1.73;;;;;;;;;;5843386;28;20057;-83
2023/08/10 00:50:32;;;;;;;2.88;1.63;;;;;;;;;;5844616;28;20037;-81
2023/08/10 00:53:24;;;;;;;2.95;2.08;;;;;;;;;;5845681;28;20038;-81
2023/08/10 00:56:16;;;;;;;3.28;2.35;;;;;;;;;;5845746;28;20128;-81
2023/08/10 00:59:08;;;;;;;3.03;2.72;;;;;;;;;;5845622;28;20052;-81
2023/08/10 01:01:59;;;;;;;6.18;2.40;;;;;;;;;;5845902;28;20571;-82
2023/08/10 01:04:50;;;;;;;1.92;1.77;;;;;;;;;;5845704;28;20053;-83
2023/08/10 01:07:50;;;;;;;3.15;1.85;;;;;;;;;;5845374;28;20089;-82
2023/08/10 01:10:58;;;;;;;3.42;2.50;;;;;;;;;;5843492;28;20610;-81
2023/08/10 01:14:03;;;;;;;5.22;1.98;;;;;;;;;;5841579;28;20050;-81
2023/08/10 01:16:57;;;;;;;2.70;1.85;;;;;;;;;;5845354;28;20076;-81
2023/08/10 01:19:50;;;;;;;2.22;1.67;;;;;;;;;;5845400;28;20524;-82
2023/08/10 01:23:20;;;;;;;2.40;1.75;;;;;;;;;;5843944;28;20050;-82
2023/08/10 01:26:11;;;;;;;2.30;2.08;;;;;;;;;;5844523;28;20176;-81
2023/08/10 01:29:03;;;;;;;2.45;1.65;;;;;;;;;;5844906;28;20512;-81
2023/08/10 01:31:54;;;;;;;3.17;2.40;;;;;;;;;;5845298;28;20054;-82
2023/08/10 01:34:44;;;;;;;2.22;1.92;;;;;;;;;;5844977;28;20045;-82
2023/08/10 01:37:37;;;;;;;1.67;1.35;;;;;;;;;;5845034;28;20396;-82
2023/08/10 01:40:27;;;;;;;3.55;1.17;;;;;;;;;;5843583;28;20052;-83
2023/08/10 01:43:18;;;;;;;1.83;1.65;;;;;;;;;;5844683;28;20148;-82
2023/08/10 01:46:14;;;;;;;4.55;2.35;;;;;;;;;;5844563;28;20046;-81
2023/08/10 01:49:07;;;;;;;2.20;1.98;;;;;;;;;;5843190;28;20046;-81
2023/08/10 01:52:02;;;;;;;3.38;2.92;;;;;;;;;;5843612;28;20172;-81
2023/08/10 01:54:54;;;;;;;4.50;2.60;;;;;;;;;;5820555;28;20416;-81
2023/08/10 01:57:45;;;;;;;3.33;2.45;;;;;;;;;;5819946;28;20050;-82
2023/08/10 02:00:37;;;;;;;2.03;1.85;;;;;;;;;;5820204;28;20142;-81
2023/08/10 02:03:28;;;;;;;3.30;2.63;;;;;;;;;;5819821;28;20077;-81
2023/08/10 02:06:19;;;;;;;2.00;1.80;;;;;;;;;;5820587;28;20093;-82
2023/08/10 02:09:10;;;;;;;3.55;2.08;;;;;;;;;;5821380;28;20047;-81
2023/08/10 02:12:00;;;;;;;4.60;3.13;;;;;;;;;;5821602;28;20481;-82
2023/08/10 02:14:52;;;;;;;3.45;1.73;;;;;;;;;;5844414;28;20493;-81
2023/08/10 02:17:43;;;;;;;3.58;2.33;;;;;;;;;;5843961;28;20045;-81
2023/08/10 02:20:34;;;;;;;2.88;1.63;;;;;;;;;;5844236;28;20493;-81
2023/08/10 02:23:25;;;;;;;2.70;2.50;;;;;;;;;;5841805;28;20041;-81
2023/08/10 02:26:16;;;;;;;2.25;2.05;;;;;;;;;;5843844;28;20050;-80
2023/08/10 02:29:07;;;;;;;2.30;1.95;;;;;;;;;;5842445;28;20426;-81
2023/08/10 02:31:59;;;;;;;2.92;2.42;;;;;;;;;;5844103;28;20060;-81
2023/08/10 02:34:49;;;;;;;2.55;2.05;;;;;;;;;;5843861;28;20042;-81
2023/08/10 02:37:41;;;;;;;2.88;2.30;;;;;;;;;;5843377;28;20057;-81
2023/08/10 02:40:32;;;;;;;16.25;3.13;;;;;;;;;;5843547;28;20053;-81
2023/08/10 02:43:23;;;;;;;4.32;2.97;;;;;;;;;;5843257;28;20049;-81
2023/08/10 02:46:14;;;;;;;6.88;2.85;;;;;;;;;;5858597;28;20042;-82
2023/08/10 02:49:04;;;;;;;3.50;2.90;;;;;;;;;;5843442;28;20050;-81
2023/08/10 02:51:55;;;;;;;3.15;2.38;;;;;;;;;;5843782;28;20042;-82
2023/08/10 02:54:46;;;;;;;16.95;3.75;;;;;;;;;;5843258;28;20050;-83
2023/08/10 02:57:37;;;;;;;4.25;2.78;;;;;;;;;;5843250;28;20444;-81
2023/08/10 03:00:28;;;;;;;5.85;2.78;;;;;;;;;;5843125;28;20133;-81
2023/08/10 03:03:18;;;;;;;17.48;3.22;;;;;;;;;;5836317;28;20424;-83
2023/08/10 03:06:09;;;;;;;4.25;3.85;;;;;;;;;;5828673;28;20042;-83
2023/08/10 03:09:00;;;;;;;7.65;2.83;;;;;;;;;;5817855;28;20138;-82
2023/08/10 03:11:51;;;;;;;25.02;3.67;;;;;;;;;;5816934;28;20072;-82
2023/08/10 03:14:42;;;;;;;2.63;2.05;;;;;;;;;;5842710;28;20042;-82
2023/08/10 03:17:33;;;;;;;7.20;2.50;;;;;;;;;;5840320;28;20042;-81
2023/08/10 03:20:24;;;;;;;36.92;2.92;;;;;;;;;;5841226;28;20413;-82
2023/08/10 03:23:15;;;;;;;14.02;3.20;;;;;;;;;;5841274;28;20041;-81
2023/08/10 03:26:06;;;;;;;6.95;2.03;;;;;;;;;;5839976;28;20048;-82
2023/08/10 03:28:56;;;;;;;14.55;2.53;;;;;;;;;;5823260;28;20038;-83
2023/08/10 03:31:47;;;;;;;30.30;2.55;;;;;;;;;;5839937;28;20049;-82
2023/08/10 03:34:38;;;;;;;25.73;2.25;;;;;;;;;;5838418;28;20054;-83
2023/08/10 03:37:29;;;;;;;7.45;1.38;;;;;;;;;;5839940;28;20045;-83
2023/08/10 03:40:19;;;;;;;17.95;2.40;;;;;;;;;;5838666;28;20509;-82
2023/08/10 03:43:10;;;;;;;6.72;1.67;;;;;;;;;;5857173;28;20056;-81
2023/08/10 03:46:02;;;;;;;36.75;1.98;;;;;;;;;;5840836;28;20129;-84
2023/08/10 03:48:53;;;;;;;27.40;1.90;;;;;;;;;;5840940;28;20046;-81
2023/08/10 03:51:44;;;;;;;5.53;0.98;;;;;;;;;;5841060;28;20064;-81
2023/08/10 03:54:35;;;;;;;37.38;1.80;;;;;;;;;;5841927;28;20374;-82
2023/08/10 03:57:26;;;;;;;38.58;1.98;;;;;;;;;;5841984;28;20041;-81
2023/08/10 04:00:17;;;;;;;29.17;2.20;;;;;;;;;;5840891;28;20489;-82
2023/08/10 04:03:08;;;;;;;41.97;2.83;;;;;;;;;;5840301;28;20060;-81
2023/08/10 04:05:59;;;;;;;16.90;2.42;;;;;;;;;;5842448;28;20100;-82
2023/08/10 04:08:50;;;;;;;16.20;2.35;;;;;;;;;;5825968;28;20422;-82
2023/08/10 04:11:41;;;;;;;34.65;2.28;;;;;;;;;;5833688;28;20042;-84
2023/08/10 04:14:32;;;;;;;11.65;2.05;;;;;;;;;;5817245;28;20408;-82
2023/08/10 04:17:23;;;;;;;5.28;2.00;;;;;;;;;;5817530;28;20505;-81
2023/08/10 04:20:14;;;;;;;7.15;1.60;;;;;;;;;;5817322;28;20093;-81
2023/08/10 04:23:05;;;;;;;9.63;2.50;;;;;;;;;;5816487;28;20057;-81
2023/08/10 04:25:56;;;;;;;11.45;2.22;;;;;;;;;;5818137;28;20052;-82
2023/08/10 04:28:47;;;;;;;3.70;1.98;;;;;;;;;;5817428;28;20362;-82
2023/08/10 04:31:38;;;;;;;5.78;2.47;;;;;;;;;;5833490;28;20058;-82
2023/08/10 04:34:29;;;;;;;4.40;2.55;;;;;;;;;;5818555;28;20176;-82
2023/08/10 04:37:20;;;;;;;8.98;2.67;;;;;;;;;;5817306;28;20497;-82
2023/08/10 04:40:11;;;;;;;9.20;2.60;;;;;;;;;;5817110;28;20042;-82
2023/08/10 04:43:04;;;;;;;23.67;3.45;;;;;;;;;;5817050;28;20050;-81
2023/08/10 04:45:55;;;;;;;4.80;3.08;;;;;;;;;;5817514;28;20058;-82
2023/08/10 04:48:45;;;;;;;21.23;3.42;;;;;;;;;;5818187;28;20055;-82
2023/08/10 04:51:37;;;;;;;31.63;3.63;;;;;;;;;;5817299;28;20133;-82
2023/08/10 04:54:27;;;;;;;7.78;4.78;;;;;;;;;;5817036;28;20409;-81
2023/08/10 04:57:18;;;;;;;12.68;2.88;;;;;;;;;;5801005;28;20046;-81
2023/08/10 05:00:12;;;;;;;6.30;4.72;;;;;;;;;;5816762;28;20057;-82
2023/08/10 05:03:04;;;;;;;12.27;4.85;;;;;;;;;;5816672;28;20039;-81
2023/08/10 05:05:55;;;;;;;8.27;3.78;;;;;;;;;;5833421;28;20134;-82
2023/08/10 05:08:45;;;;;;;54.45;4.82;;;;;;;;;;5833098;28;20050;-81
2023/08/10 05:11:36;;;;;;;7.75;4.82;;;;;;;;;;5816845;28;20038;-81
2023/08/10 05:14:27;;;;;;;6.47;5.13;;;;;;;;;;5816753;28;20049;-81
2023/08/10 05:17:18;;;;;;;13.90;4.45;;;;;;;;;;5816830;28;20050;-82
2023/08/10 05:20:12;;;;;;;9.27;4.88;;;;;;;;;;5816592;28;20046;-82
2023/08/10 05:23:03;;;;;;;10.13;4.82;;;;;;;;;;5816999;28;20057;-83
2023/08/10 05:25:54;;;;;;;8.55;4.55;;;;;;;;;;5817113;28;20451;-82
2023/08/10 05:28:45;;;;;;;7.47;4.22;;;;;;;;;;5816540;28;20358;-81
2023/08/10 05:31:36;;;;;;;14.20;5.35;;;;;;;;;;5816778;28;20049;-82
2023/08/10 05:34:27;;;;;;;9.80;3.95;;;;;;;;;;5819814;28;20049;-81
2023/08/10 05:37:17;;;;;;;11.50;5.28;;;;;;;;;;5820957;28;20050;-82
2023/08/10 05:40:11;;;;;;;44.42;6.55;;;;;;;;;;5821129;28;20349;-83
2023/08/10 05:43:09;;;;;;;12.95;6.13;;;;;;;;;;5821085;28;20046;-83
2023/08/10 05:46:00;;;;;;;10.93;5.47;;;;;;;;;;5821472;28;20061;-82
2023/08/10 05:48:57;;;;;;;13.50;4.60;;;;;;;;;;5819926;28;20050;-81
2023/08/10 05:51:48;;;;;;;6.22;4.40;;;;;;;;;;5813917;28;20052;-83
2023/08/10 05:54:45;;;;;;;4.13;3.33;;;;;;;;;;5814099;28;20061;-83
2023/08/10 05:57:36;;;;;;;5.68;4.22;;;;;;;;;;5813948;28;20080;-81
2023/08/10 06:00:33;;;;;;;9.90;4.43;;;;;;;;;;5813607;28;20133;-85
2023/08/10 06:03:24;;;;;;;2.33;2.03;;;;;;;;;;5814518;28;20053;-83
2023/08/10 06:06:21;;;;;;;5.35;1.92;;;;;;;;;;5813603;28;20050;-81
2023/08/10 06:09:12;;;;;;;9.75;2.17;;;;;;;;;;5813544;28;20046;-81
2023/08/10 06:12:10;;;;;;;5.20;2.42;;;;;;;;;;5815073;28;20583;-83
2023/08/10 06:15:01;;;;;;;2.33;1.83;;;;;;;;;;5814657;28;20614;-81
2023/08/10 06:17:58;;;;;;;4.30;2.90;;;;;;;;;;5814702;28;20057;-84
2023/08/10 06:20:50;;;;;;;10.75;3.65;;;;;;;;;;5814994;28;20046;-83
2023/08/10 06:23:48;;;;;;;5.00;4.25;;;;;;;;;;5812961;28;20088;-84
2023/08/10 06:26:40;;;;;;;5.40;2.95;;;;;;;;;;5814861;28;20046;-82
2023/08/10 06:29:37;;;;;;;4.83;3.40;;;;;;;;;;5814541;28;20125;-81
2023/08/10 06:32:28;;;;;;;3.25;2.42;;;;;;;;;;5814285;28;20263;-84
2023/08/10 06:35:25;;;;;;;4.38;3.45;;;;;;;;;;5814566;28;20060;-83
2023/08/10 06:38:16;;;;;;;5.40;3.33;;;;;;;;;;5812551;28;20054;-82
2023/08/10 06:41:13;;;;;;;3.80;2.47;;;;;;;;;;5814579;28;20569;-84
2023/08/10 06:44:04;;;;;;;4.10;3.17;;;;;;;;;;5813468;28;20047;-84
2023/08/10 06:47:03;;;;;;;7.53;3.45;;;;;;;;;;5813722;28;20050;-85
2023/08/10 06:49:54;;;;;;;4.38;2.58;;;;;;;;;;5814067;28;20047;-85
2023/08/10 06:52:53;;;;;;;4.53;3.15;;;;;;;;;;5813733;28;20076;-80
2023/08/10 06:55:44;;;;;;;5.20;3.78;;;;;;;;;;5814062;28;20046;-84
2023/08/10 06:58:42;;;;;;;5.90;2.80;;;;;;;;;;5813681;28;20049;-81
2023/08/10 07:01:53;;;;;;;9.50;2.85;;;;;;;;;;5813681;28;20053;-84
2023/08/10 07:04:51;;;;;;;4.20;2.90;;;;;;;;;;5813575;28;20061;-83
2023/08/10 07:07:41;;;;;;;4.75;2.38;;;;;;;;;;5813970;28;20058;-80
2023/08/10 07:10:39;;;;;;;4.70;3.35;;;;;;;;;;5813778;28;20057;-85
2023/08/10 07:13:36;;;;;;;8.50;3.00;;;;;;;;;;5813254;28;20042;-81
2023/08/10 07:16:27;;;;;;;4.50;2.72;;;;;;;;;;5813747;28;20047;-81
2023/08/10 07:19:24;;;;;;;4.75;2.42;;;;;;;;;;5813828;28;20481;-83
2023/08/10 07:22:21;;;;;;;5.03;2.55;;;;;;;;;;5812939;28;20057;-80
2023/08/10 07:25:12;;;;;;;3.63;2.42;;;;;;;;;;5813455;28;20042;-80
2023/08/10 07:28:09;;;;;;;6.47;3.30;;;;;;;;;;5813396;28;20158;-85
2023/08/10 07:31:00;;;;;;;3.65;2.88;;;;;;;;;;5813305;28;20053;-85
2023/08/10 07:34:01;;;;;;;9.82;3.78;;;;;;;;;;5813501;28;20161;-80
2023/08/10 07:36:51;;;;;;;4.97;2.25;;;;;;;;;;5813694;28;20050;-81
2023/08/10 07:39:48;;;;;;;2.65;2.25;;;;;;;;;;5813100;28;20517;-85
2023/08/10 07:42:39;;;;;;;4.28;2.53;;;;;;;;;;5813424;28;20053;-85
2023/08/10 07:45:36;;;;;;;5.18;2.70;;;;;;;;;;5812550;28;20049;-80
2023/08/10 07:48:27;;;;;;;6.50;2.60;;;;;;;;;;5827696;28;20520;-80
2023/08/10 07:51:24;;;;;;;2.38;1.83;;;;;;;;;;5812980;28;20043;-85
2023/08/10 07:54:15;;;;;;;2.95;2.38;;;;;;;;;;5812715;28;20544;-85
2023/08/10 07:57:12;;;;;;;7.18;2.45;;;;;;;;;;5812061;28;20580;-80
2023/08/10 08:00:05;;;;;;;3.55;1.92;;;;;;;;;;5812804;28;20407;-83
2023/08/10 08:03:02;;;;;;;3.38;1.70;;;;;;;;;;5812477;28;20411;-80
2023/08/10 08:05:53;;;;;;;3.15;2.10;;;;;;;;;;5812913;28;20046;-83
2023/08/10 08:08:50;;;;;;;1.38;1.02;;;;;;;;;;5812407;28;20065;-83
2023/08/10 08:11:41;;;;;;;2.17;1.58;;;;;;;;;;5810951;28;20053;-79
2023/08/10 08:14:39;;;;;;;9.77;2.58;;;;;;;;;;5812324;28;20050;-83
2023/08/10 08:18:27;;;;;;;3.03;1.48;;;;;;;;;;5812002;28;20271;-84
2023/08/10 08:21:27;;;;;;;2.22;1.65;;;;;;;;;;5812022;28;20054;-84
2023/08/10 08:24:18;;;;;;;2.72;1.90;;;;;;;;;;5810952;28;20042;-83
2023/08/10 08:27:15;;;;;;;2.30;1.45;;;;;;;;;;5811805;28;20134;-82
2023/08/10 08:30:07;;;;;;;13.45;2.10;;;;;;;;;;5811790;28;20050;-79
2023/08/10 08:33:04;;;;;;;2.22;1.33;;;;;;;;;;5811867;28;20056;-84
2023/08/10 08:35:55;;;;;;;3.55;1.48;;;;;;;;;;5812322;28;20054;-81
2023/08/10 08:38:53;;;;;;;1.50;1.30;;;;;;;;;;5811784;28;20050;-83
2023/08/10 08:41:45;;;;;;;1.20;0.77;;;;;;;;;;5810340;28;20046;-83
2023/08/10 08:44:43;;;;;;;2.10;0.93;;;;;;;;;;5811760;28;20042;-84
2023/08/10 08:47:34;;;;;;;2.35;1.45;;;;;;;;;;5811877;28;20050;-82
2023/08/10 08:50:31;;;;;;;2.60;1.23;;;;;;;;;;5811687;28;20057;-79
2023/08/10 08:53:24;;;;;;;10.32;1.00;;;;;;;;;;5811922;28;20112;-80
2023/08/10 08:56:21;;;;;;;3.30;1.55;;;;;;;;;;5811768;28;20331;-80
2023/08/10 08:59:12;;;;;;;3.55;1.27;;;;;;;;;;5811638;28;20042;-80
2023/08/10 09:02:10;;;;;;;1.95;1.33;;;;;;;;;;5825328;28;20275;-83
2023/08/10 09:05:08;;;;;;;1.27;0.88;;;;;;;;;;5811497;28;20057;-84
2023/08/10 09:08:06;;;;;;;1.90;1.05;;;;;;;;;;5813044;28;20057;-80
2023/08/10 09:10:57;;;;;;;0.60;0.57;;;;;;;;;;5816377;28;20050;-79
2023/08/10 09:14:08;;;;;;;0.57;0.50;;;;;;;;;;5814408;28;20050;-83
2023/08/10 09:16:59;;;;;;;0.75;0.50;;;;;;;;;;5816027;28;20061;-81
2023/08/10 09:19:56;;;;;;;0.98;0.52;;;;;;;;;;5815625;28;20050;-79
2023/08/10 09:22:49;;;;;;;1.38;1.00;;;;;;;;;;5815653;28;20054;-78
2023/08/10 09:25:47;;;;;;;1.55;0.70;;;;;;;;;;5816394;28;20050;-81
2023/08/10 09:28:38;;;;;;;2.63;1.10;;;;;;;;;;5815624;28;20342;-84
2023/08/10 09:31:35;;;;;;;0.75;0.55;;;;;;;;;;5815534;28;20520;-84
2023/08/10 09:34:26;;;;;;;2.25;0.80;;;;;;;;;;5815096;28;20043;-80
2023/08/10 09:37:24;;;;;;;1.23;0.77;;;;;;;;;;5814076;28;20050;-81
2023/08/10 09:40:22;;;;;;;0.52;0.52;;;;;;;;;;5813751;28;20056;-78
2023/08/10 09:43:15;;;;;;;0.82;0.32;;;;;;;;;;5815023;28;20461;-81
2023/08/10 09:46:14;;;;;;;0.20;0.13;;;;;;;;;;5815731;28;20454;-79
2023/08/10 09:49:05;;;;;;;1.30;0.52;;;;;;;;;;5813486;28;20105;-81
2023/08/10 09:52:04;;;;;;;4.95;0.45;;;;;;;;;;5815196;28;20042;-85
2023/08/10 09:54:56;;;;;;;0.88;0.55;;;;;;;;;;5814970;28;20047;-82
2023/08/10 09:57:54;;;;;;;0.45;0.43;;;;;;;;;;5815401;28;20432;-84
2023/08/10 10:00:45;;;;;;;0.60;0.50;;;;;;;;;;5813984;28;20129;-83
2023/08/10 10:03:43;;;;;;;0.28;0.28;;;;;;;;;;5813342;28;20057;-79
2023/08/10 10:06:35;;;;;;;0.70;0.40;;;;;;;;;;5814511;28;20046;-81
2023/08/10 10:09:37;;;;;;;1.00;0.90;;;;;;;;;;5814127;28;20527;-83
2023/08/10 10:12:35;;;;;;;1.13;0.85;;;;;;;;;;5813870;28;20661;-83
2023/08/10 10:15:35;;;;;;;1.48;0.68;;;;;;;;;;5814701;28;20049;-80
2023/08/10 10:18:35;;;;;;;2.97;0.55;;;;;;;;;;5814745;28;20061;-79
2023/08/10 10:21:26;;;;;;;1.20;0.73;;;;;;;;;;5813742;28;20050;-80
2023/08/10 10:24:28;;;;;;;0.20;0.20;;;;;;;;;;5813249;28;20049;-81
2023/08/10 10:27:19;;;;;;;0.25;0.15;;;;;;;;;;5814871;28;20085;-81
2023/08/10 10:30:18;;;;;;;1.75;0.68;;;;;;;;;;5814233;28;20043;-78
2023/08/10 10:33:09;;;;;;;1.23;0.50;;;;;;;;;;5814245;28;20137;-81
2023/08/10 10:36:14;;;;;;;0.70;0.70;;;;;;;;;;5813974;28;20046;-78
2023/08/10 10:39:08;;;;;;;0.90;0.57;;;;;;;;;;5814391;28;20046;-78
2023/08/10 10:42:05;;;;;;;0.30;0.30;;;;;;;;;;5813240;28;20061;-81
2023/08/10 10:45:12;;;;;;;0.50;0.28;;;;;;;;;;5813854;28;20039;-78
2023/08/10 10:48:13;;;;;;;1.02;0.73;;;;;;;;;;5813907;28;20043;-82
2023/08/10 10:51:05;;;;;;;2.95;0.70;;;;;;;;;;5829217;28;20050;-80
2023/08/10 10:54:02;;;;;;;;;;;;;;;;;;5814162;28;20096;-78
2023/08/10 10:56:54;;;;;;;1.15;0.50;;;;;;;;;;5814616;28;20408;-82
2023/08/10 10:59:52;;;;;;;;;;;;;;;;;;5815213;28;20049;-79
2023/08/10 11:02:43;;;;;;;0.45;0.40;;;;;;;;;;5813168;28;19922;-79
2023/08/10 11:05:40;;;;;;;0.20;0.20;;;;;;;;;;5813215;28;20049;-80
2023/08/10 11:08:37;;;;;;;0.30;0.30;;;;;;;;;;5814493;28;20201;-78
2023/08/10 11:11:29;;;;;;;0.20;0.20;;;;;;;;;;5814642;28;20053;-81
2023/08/10 11:14:28;;;;;;;0.98;0.80;;;;;;;;;;5813788;28;20053;-79
2023/08/10 11:17:21;;;;;;;1.27;0.50;;;;;;;;;;5814315;28;20054;-81
2023/08/10 11:20:20;;;;;;;1.23;0.28;;;;;;;;;;5814596;28;20050;-81
2023/08/10 11:23:12;;;;;;;0.40;0.40;;;;;;;;;;5813317;28;20141;-79
2023/08/10 11:26:11;;;;;;;0.25;0.25;;;;;;;;;;5814463;28;20054;-81
2023/08/10 11:29:03;;;;;;;2.53;0.52;;;;;;;;;;5814077;28;20039;-80
2023/08/10 11:32:00;;;;;;;0.25;0.25;;;;;;;;;;5813771;28;20441;-80
2023/08/10 11:34:53;;;;;;;0.38;0.38;;;;;;;;;;5814535;28;20043;-81
2023/08/10 11:37:51;;;;;;;0.20;0.20;;;;;;;;;;5830143;28;20046;-80
2023/08/10 11:40:42;;;;;;;0.73;0.40;;;;;;;;;;5814153;28;20053;-79
2023/08/10 11:43:41;;;;;;;0.68;0.40;;;;;;;;;;5811548;28;20056;-82
2023/08/10 11:46:32;;;;;;;1.92;0.40;;;;;;;;;;5813323;28;20082;-79
2023/08/10 11:49:32;;;;;;;0.98;0.55;;;;;;;;;;5814042;28;20046;-82
2023/08/10 11:52:29;;;;;;;1.20;0.82;;;;;;;;;;5814194;28;20061;-81
2023/08/10 11:55:27;;;;;;;0.63;0.32;;;;;;;;;;5812705;28;20066;-81
2023/08/10 11:58:19;;;;;;;2.35;0.90;;;;;;;;;;5813773;28;20117;-82
2023/08/10 12:01:18;;;;;;;2.03;0.20;;;;;;;;;;5813631;28;20050;-77
2023/08/10 12:04:14;;;;;;;0.40;0.30;;;;;;;;;;5813914;28;20042;-82
2023/08/10 12:07:21;;;;;;;5.25;1.48;;;;;;;;;;5813339;28;20046;-82
2023/08/10 12:10:12;;;;;;;0.73;0.20;;;;;;;;;;5814379;28;20346;-81
2023/08/10 12:13:14;;;;;;;0.35;0.22;;;;;;;;;;5814441;28;20046;-81
2023/08/10 12:16:05;;;;;;;0.82;0.52;;;;;;;;;;5815782;28;20078;-81
2023/08/10 12:19:02;;;;;;;0.47;0.47;;;;;;;;;;5815399;28;20061;-79
2023/08/10 12:21:53;;;;;;;0.20;0.20;;;;;;;;;;5812519;28;20046;-80
2023/08/10 12:24:50;;;;;;;0.20;0.20;;;;;;;;;;5811440;28;20046;-81
2023/08/10 12:27:41;;;;;;;0.35;0.22;;;;;;;;;;5811182;28;20049;-81
2023/08/10 12:30:39;;;;;;;;;;;;;;;;;;5813381;28;20437;-80
2023/08/10 12:33:30;;;;;;;0.22;0.22;;;;;;;;;;5812082;28;20369;-82
2023/08/10 12:36:27;;;;;;;0.20;0.20;;;;;;;;;;5813671;28;20054;-79
2023/08/10 12:39:18;;;;;;;0.30;0.20;;;;;;;;;;5815051;28;20628;-81
2023/08/10 12:42:15;;;;;;;0.40;0.20;;;;;;;;;;5814687;28;20136;-82
2023/08/10 12:45:10;;;;;;;1.00;0.50;;;;;;;;;;5823670;28;20046;-78
2023/08/10 12:48:07;;;;;;;0.57;0.57;;;;;;;;;;5819520;28;20046;-79
2023/08/10 12:50:58;;;;;;;0.50;0.30;;;;;;;;;;5826130;28;20557;-81
2023/08/10 12:53:55;;;;;;;0.35;0.35;;;;;;;;;;5823001;28;20046;-81
2023/08/10 12:56:53;;;;;;;0.20;0.20;;;;;;;;;;5822081;28;20050;-80
2023/08/10 12:59:50;;;;;;;0.22;0.15;;;;;;;;;;5823788;28;20162;-80
2023/08/10 13:02:43;;;;;;;0.95;0.40;;;;;;;;;;5821783;28;20341;-80
2023/08/10 13:05:41;;;;;;;0.75;0.43;;;;;;;;;;5819625;28;20069;-81
2023/08/10 13:08:31;;;;;;;0.20;0.10;;;;;;;;;;5818503;28;20125;-80
2023/08/10 13:11:29;;;;;;;0.32;0.32;;;;;;;;;;5818193;28;20056;-80
2023/08/10 13:14:20;;;;;;;0.38;0.32;;;;;;;;;;5820201;28;20047;-80
2023/08/10 13:17:17;;;;;;;1.00;0.50;;;;;;;;;;5823846;28;20049;-78
2023/08/10 13:20:08;;;;;;;0.30;0.28;;;;;;;;;;5824215;28;20060;-79
2023/08/10 13:23:06;;;;;;;1.00;0.80;;;;;;;;;;5822037;28;20046;-78
2023/08/10 13:25:57;;;;;;;2.35;0.50;;;;;;;;;;5822500;28;20454;-78
2023/08/10 13:28:54;;;;;;;0.77;0.52;;;;;;;;;;5821916;28;20046;-80
2023/08/10 13:31:45;;;;;;;1.83;0.43;;;;;;;;;;5822813;28;20274;-80
2023/08/10 13:34:42;;;;;;;1.30;0.90;;;;;;;;;;5823506;28;20386;-81
2023/08/10 13:37:33;;;;;;;0.10;0.10;;;;;;;;;;5823234;28;20277;-78
2023/08/10 13:40:30;;;;;;;3.65;0.57;;;;;;;;;;5817452;28;20417;-79
2023/08/10 13:43:27;;;;;;;0.70;0.65;;;;;;;;;;5817495;28;20046;-78
2023/08/10 13:46:25;;;;;;;0.50;0.50;;;;;;;;;;5817684;28;20181;-78
2023/08/10 13:49:16;;;;;;;1.17;0.43;;;;;;;;;;5816766;28;20038;-79
2023/08/10 13:52:14;;;;;;;;;;;;;;;;;;5816632;28;20048;-80
2023/08/10 13:55:06;;;;;;;0.30;0.30;;;;;;;;;;5816259;28;20029;-81
2023/08/10 13:58:05;;;;;;;0.57;0.20;;;;;;;;;;5815087;28;20057;-81
2023/08/10 14:00:56;;;;;;;0.60;0.50;;;;;;;;;;5814845;28;20053;-82
2023/08/10 14:03:53;;;;;;;0.22;0.22;;;;;;;;;;5817060;28;20077;-78
2023/08/10 14:06:44;;;;;;;3.35;0.63;;;;;;;;;;5816563;28;20046;-81
2023/08/10 14:09:42;;;;;;;2.28;0.50;;;;;;;;;;5816116;28;20054;-81
2023/08/10 14:12:33;;;;;;;0.20;0.20;;;;;;;;;;5814747;28;20085;-81
2023/08/10 14:15:30;;;;;;;0.20;0.20;;;;;;;;;;5817174;28;20546;-81
2023/08/10 14:18:21;;;;;;;0.52;0.43;;;;;;;;;;5816328;28;20057;-81
2023/08/10 14:21:20;;;;;;;0.25;0.25;;;;;;;;;;5815604;28;20050;-81
2023/08/10 14:24:11;;;;;;;0.65;0.20;;;;;;;;;;5815115;28;20093;-77
2023/08/10 14:27:08;;;;;;;0.40;0.30;;;;;;;;;;5816252;28;20052;-80
2023/08/10 14:29:59;;;;;;;0.98;0.32;;;;;;;;;;5816592;28;20267;-82
2023/08/10 14:32:56;;;;;;;0.32;0.30;;;;;;;;;;5817919;28;20043;-79
2023/08/10 14:35:53;;;;;;;0.10;0.10;;;;;;;;;;5815133;28;20050;-80
2023/08/10 14:38:44;;;;;;;0.70;0.45;;;;;;;;;;5815749;28;20054;-81
2023/08/10 14:41:41;;;;;;;0.35;0.30;;;;;;;;;;5814680;28;20046;-80
2023/08/10 14:44:32;;;;;;;0.43;0.40;;;;;;;;;;5814877;28;20081;-77
2023/08/10 14:47:35;;;;;;;1.02;0.63;;;;;;;;;;5814023;28;20689;-81
2023/08/10 14:50:27;;;;;;;2.27;0.50;;;;;;;;;;5814425;28;20053;-80
2023/08/10 14:53:29;;;;;;;0.30;0.30;;;;;;;;;;5815199;28;20280;-78
2023/08/10 14:56:19;;;;;;;0.88;0.50;;;;;;;;;;5815024;28;20057;-80
2023/08/10 14:59:18;;;;;;;1.17;0.83;;;;;;;;;;5814482;28;20042;-79
2023/08/10 15:02:08;;;;;;;0.47;0.40;;;;;;;;;;5815418;28;20292;-80
2023/08/10 15:05:06;;;;;;;0.70;0.50;;;;;;;;;;5813990;28;20046;-79
2023/08/10 15:07:57;;;;;;;1.58;0.80;;;;;;;;;;5815004;28;20054;-79
2023/08/10 15:11:01;;;;;;;0.95;0.60;;;;;;;;;;5814720;28;20160;-80
2023/08/10 15:13:52;;;;;;;1.90;0.40;;;;;;;;;;5815369;28;20129;-77
2023/08/10 15:16:49;;;;;;;0.20;0.20;;;;;;;;;;5813238;28;20155;-82
2023/08/10 15:19:40;;;;;;;0.35;0.30;;;;;;;;;;5813413;28;20224;-80
2023/08/10 15:22:38;;;;;;;1.23;0.40;;;;;;;;;;5814247;28;20064;-79
2023/08/10 15:25:29;;;;;;;1.50;0.60;;;;;;;;;;5815395;28;20046;-81
2023/08/10 15:28:26;;;;;;;0.52;0.43;;;;;;;;;;5815762;28;20418;-80
2023/08/10 15:31:18;;;;;;;0.80;0.70;;;;;;;;;;5813045;28;20046;-81
2023/08/10 15:34:16;;;;;;;0.40;0.40;;;;;;;;;;5813841;28;20050;-80
2023/08/10 15:37:07;;;;;;;0.30;0.30;;;;;;;;;;5813598;28;20074;-81
2023/08/10 15:40:05;;;;;;;2.72;0.65;;;;;;;;;;5814398;28;20056;-80
2023/08/10 15:42:55;;;;;;;0.65;0.52;;;;;;;;;;5813154;28;20047;-77
2023/08/10 15:45:53;;;;;;;0.40;0.40;;;;;;;;;;5813617;28;20345;-80
2023/08/10 15:48:44;;;;;;;0.30;0.30;;;;;;;;;;5812649;28;20046;-79
2023/08/10 15:52:02;;;;;;;2.15;0.50;;;;;;;;;;5813224;28;20663;-79
2023/08/10 15:55:00;;;;;;;5.00;0.50;;;;;;;;;;5817065;28;20042;-79
2023/08/10 15:57:58;;;;;;;;;;;;;;;;;;5817408;28;20046;-80
2023/08/10 16:00:50;;;;;;;0.52;0.52;;;;;;;;;;5817348;28;20035;-80
2023/08/10 16:03:47;;;;;;;1.85;0.63;;;;;;;;;;5814009;28;20047;-80
2023/08/10 16:06:38;;;;;;;0.20;0.20;;;;;;;;;;5811630;28;20057;-80
2023/08/10 16:09:35;;;;;;;2.15;0.95;;;;;;;;;;5813074;28;20046;-81
2023/08/10 16:12:26;;;;;;;0.40;0.38;;;;;;;;;;5812965;28;20461;-79
2023/08/10 16:15:23;;;;;;;0.40;0.40;;;;;;;;;;5813338;28;20068;-79
2023/08/10 16:18:14;;;;;;;0.22;0.20;;;;;;;;;;5813531;28;20080;-80
2023/08/10 16:21:11;;;;;;;1.85;0.85;;;;;;;;;;5813621;28;20057;-80
2023/08/10 16:24:08;;;;;;;0.50;0.40;;;;;;;;;;5814112;28;20077;-81
2023/08/10 16:26:59;;;;;;;0.70;0.57;;;;;;;;;;5813698;28;20121;-80
2023/08/10 16:29:56;;;;;;;0.40;0.40;;;;;;;;;;5813227;28;20046;-77
2023/08/10 16:32:53;;;;;;;1.85;0.57;;;;;;;;;;5813133;28;20139;-79
2023/08/10 16:35:44;;;;;;;1.05;0.73;;;;;;;;;;5814065;28;20148;-81
2023/08/10 16:38:41;;;;;;;3.40;1.25;;;;;;;;;;5812738;28;20049;-79
2023/08/10 16:41:32;;;;;;;0.40;0.40;;;;;;;;;;5813692;28;20170;-81
2023/08/10 16:44:29;;;;;;;0.50;0.45;;;;;;;;;;5811554;28;20486;-80
2023/08/10 16:47:20;;;;;;;26.00;1.35;;;;;;;;;;5812746;28;20402;-79
2023/08/10 16:50:17;;;;;;;0.85;0.77;;;;;;;;;;5810436;28;20046;-77
2023/08/10 16:53:08;;;;;;;2.28;0.50;;;;;;;;;;5808022;28;20038;-79
2023/08/10 16:56:05;;;;;;;1.75;1.05;;;;;;;;;;5810092;28;20573;-82
2023/08/10 16:58:56;;;;;;;0.60;0.45;;;;;;;;;;5810971;28;20069;-78
2023/08/10 17:01:53;;;;;;;2.70;0.80;;;;;;;;;;5810563;28;20055;-81
2023/08/10 17:04:46;;;;;;;0.90;0.63;;;;;;;;;;5811023;28;20052;-80
2023/08/10 17:07:44;;;;;;;2.00;0.70;;;;;;;;;;5810725;28;20053;-81
2023/08/10 17:10:34;;;;;;;1.23;0.80;;;;;;;;;;5810369;28;20050;-82
2023/08/10 17:13:32;;;;;;;0.70;0.50;;;;;;;;;;5810172;28;20137;-79
2023/08/10 17:16:25;;;;;;;3.50;0.50;;;;;;;;;;5810781;28;20274;-79
2023/08/10 17:19:22;;;;;;;0.60;0.50;;;;;;;;;;5811229;28;20404;-77
2023/08/10 17:22:13;;;;;;;4.38;1.30;;;;;;;;;;5810055;28;20133;-81
2023/08/10 17:25:10;;;;;;;1.98;1.27;;;;;;;;;;5810810;28;20058;-81